Latest Weather Observations for Melbourne (Olympic Park)

IDV60901

Issued at 3:41 pm EDT Saturday 21 October 2017 (issued every 10 minutes, with the page automatically refreshed every 10 minutes)

About weather observations | Map of Melbourne area stations | Latest observations for Melbourne area | Other Formats
Station Details ID: 086338 Name: MELBOURNE (OLYMPIC PARK) Lat: -37.83 Lon: 144.98 Height: 7.53 m
Data from the previous 72 hours. | See also: Recent months at Melbourne (Olympic Park)
Date/Time
EDT
Temp
°C
App
Temp
°C
Dew
Point
°C
Rel
Hum
%
Delta-T
°C
Wind Press
QNH
hPa
Press
MSL
hPa
Rain since
9am
mm
Dir  Spd
km/h
Gust
km/h
Spd
kts
Gust
kts
21/03:30pm 14.1 11.1 7.9 66 3.1 S 13 20 7 11 1022.9 1022.9 0.0
21/03:00pm 14.8 13.2 7.8 63 3.5 SSE 6 13 3 7 1023.2 1023.2 0.0
21/02:30pm 13.1 10.1 7.5 69 2.7 SSE 13 22 7 12 1023.8 1023.8 0.0
21/02:00pm 13.8 11.1 7.3 65 3.2 S 11 20 6 11 1024.0 1024.0 0.0
21/01:30pm 14.0 10.8 6.8 62 3.5 S 13 22 7 12 1024.3 1024.3 0.0
21/01:00pm 13.4 10.2 6.7 64 3.2 SSW 13 24 7 13 1024.8 1024.8 0.0
21/12:30pm 13.5 9.9 6.6 63 3.3 SSW 15 28 8 15 1025.1 1025.1 0.0
21/12:00pm 13.2 9.5 6.5 64 3.2 S 15 22 8 12 1025.4 1025.4 0.0
21/11:30am 12.7 9.3 7.6 71 2.5 SSW 15 28 8 15 1025.7 1025.7 0.0
21/11:00am 13.8 10.5 6.4 61 3.5 SSW 13 26 7 14 1025.6 1025.6 0.0
21/10:30am 12.8 10.7 6.6 66 3.0 WSW 7 20 4 11 1025.9 1025.9 0.0
21/10:00am 11.9 9.1 7.0 72 2.3 SW 11 22 6 12 1026.1 1026.1 0.0
21/09:30am 11.5 9.2 7.6 77 1.9 W 9 17 5 9 1026.1 1026.1 0.0
21/09:00am 11.8 9.3 6.7 71 2.4 WSW 9 20 5 11 1026.1 1026.1 0.0
21/08:30am 11.7 9.8 6.6 71 2.4 SW 6 17 3 9 1026.1 1026.1 0.0
21/08:00am 11.6 9.4 6.1 69 2.6 W 7 13 4 7 1026.0 1026.0 0.0
21/07:30am 11.7 8.9 5.3 65 2.9 SSW 9 20 5 11 1026.1 1026.1 0.0
21/07:00am 11.3 9.2 6.8 74 2.1 W 7 11 4 6 1026.1 1026.1 0.0
21/06:30am 11.3 8.5 6.8 74 2.1 SW 11 17 6 9 1026.1 1026.1 0.0
21/06:00am 12.0 9.0 6.1 67 2.8 SSW 11 20 6 11 1026.1 1026.1 0.0
21/05:30am 12.1 9.8 5.5 64 3.1 S 7 13 4 7 1026.0 1026.0 0.0
21/05:00am 12.1 8.6 5.5 64 3.0 SSW 13 24 7 13 1026.1 1026.1 0.0
21/04:30am 12.1 9.3 5.0 62 3.3 SSW 9 20 5 11 1026.3 1026.3 0.0
21/04:00am 12.1 8.9 5.3 63 3.1 SSW 11 28 6 15 1026.5 1026.5 0.0
21/03:30am 12.3 8.9 5.7 64 3.1 S 13 20 7 11 1026.7 1026.7 0.0
21/03:00am 12.5 8.9 5.2 61 3.4 SSW 13 24 7 13 1026.9 1026.9 0.0
21/02:30am 12.3 8.7 5.2 62 3.3 S 13 22 7 12 1027.1 1027.1 0.0
21/02:00am 12.4 9.2 5.3 62 3.3 S 11 19 6 10 1027.5 1027.5 0.0
21/01:30am 12.4 9.5 4.6 59 3.6 SSE 9 19 5 10 1027.7 1027.7 0.0
21/01:00am 12.5 9.6 4.7 59 3.5 S 9 20 5 11 1028.0 1028.0 0.0
21/12:30am 12.5 8.7 4.0 56 3.8 S 13 26 7 14 1028.3 1028.3 0.0
21/12:00am 12.7 9.4 4.4 57 3.7 S 11 24 6 13 1028.4 1028.4 0.0
 
Date/Time
EDT
Temp
°C
App
Temp
°C
Dew
Point
°C
Rel
Hum
%
Delta-T
°C
Wind Press
QNH
hPa
Press
MSL
hPa
Rain since
9am
mm
Dir  Spd
km/h
Gust
km/h
Spd
kts
Gust
kts
20/11:30pm 12.8 9.5 4.8 58 3.7 S 11 24 6 13 1028.6 1028.6 0.0
20/11:00pm 12.7 9.1 4.9 59 3.6 SSW 13 28 7 15 1028.7 1028.7 0.0
20/10:30pm 12.7 9.0 4.2 56 3.9 S 13 26 7 14 1028.9 1028.9 0.0
20/10:00pm 12.7 8.8 3.6 54 4.0 S 13 22 7 12 1029.1 1029.1 0.0
20/09:30pm 12.8 9.1 4.3 56 3.9 S 13 26 7 14 1029.0 1029.0 0.0
20/09:00pm 12.8 9.1 4.5 57 3.8 S 13 26 7 14 1029.1 1029.1 0.0
20/08:30pm 12.8 9.2 5.0 59 3.6 S 13 26 7 14 1028.8 1028.8 0.0
20/08:00pm 13.1 9.2 5.5 60 3.5 SSE 15 30 8 16 1028.5 1028.5 0.0
20/07:30pm 13.3 9.4 5.2 58 3.8 S 15 28 8 15 1028.3 1028.3 0.0
20/07:00pm 13.3 9.4 5.2 58 3.7 S 15 30 8 16 1028.2 1028.2 0.0
20/06:30pm 13.6 8.7 3.9 52 4.4 S 19 35 10 19 1028.1 1028.1 0.0
20/06:00pm 14.1 9.6 4.1 51 4.5 S 17 35 9 19 1027.9 1027.9 0.0
20/05:30pm 14.3 9.3 3.5 48 4.9 S 19 30 10 16 1027.8 1027.8 0.0
20/05:00pm 14.7 9.7 4.4 50 4.7 SSW 20 35 11 19 1027.7 1027.7 0.0
20/04:30pm 14.8 10.3 4.2 49 4.9 SSW 17 35 9 19 1027.6 1027.6 0.0
20/04:00pm 15.5 10.6 4.3 47 5.2 S 19 33 10 18 1027.6 1027.6 0.0
20/03:30pm 15.4 11.4 4.8 49 5.0 S 15 28 8 15 1027.7 1027.7 0.0
20/03:00pm 15.3 10.7 6.6 56 4.2 S 20 37 11 20 1027.9 1027.9 0.0
20/02:30pm 15.4 10.7 5.0 50 4.9 SSW 19 32 10 17 1028.0 1028.0 0.0
20/02:00pm 15.7 10.7 4.7 48 5.1 SSW 20 35 11 19 1027.9 1027.9 0.0
20/01:30pm 15.8 11.0 5.7 51 4.8 S 20 37 11 20 1027.9 1027.9 0.0
20/01:00pm 15.2 10.3 5.1 51 4.7 S 20 37 11 20 1027.9 1027.9 0.0
20/12:30pm 15.1 10.3 5.6 53 4.5 S 20 32 11 17 1027.9 1027.9 0.0
20/12:00pm 14.9 10.2 5.1 52 4.6 SSW 19 33 10 18 1028.0 1028.0 0.0
20/11:30am 14.8 10.3 5.9 55 4.3 SSW 19 39 10 21 1027.9 1027.9 0.0
20/11:00am 14.8 10.4 4.8 51 4.6 S 17 32 9 17 1027.9 1027.9 0.0
20/10:30am 14.8 10.0 4.8 51 4.7 S 19 32 10 17 1027.8 1027.8 0.0
20/10:00am 13.4 9.3 6.0 61 3.5 SSW 17 28 9 15 1027.7 1027.7 0.0
20/09:30am 14.0 11.0 5.9 58 3.8 SSW 11 22 6 12 1027.3 1027.3 0.0
20/09:00am 13.4 11.2 7.8 69 2.7 SW 9 20 5 11 1027.0 1027.0 2.6
20/08:30am 13.7 11.8 7.5 66 3.0 WSW 7 20 4 11 1026.7 1026.7 2.6
20/08:00am 12.9 9.6 6.5 65 3.0 SSW 13 24 7 13 1026.4 1026.4 2.6
20/07:30am 12.0 10.0 8.7 80 1.6 W 9 20 5 11 1026.1 1026.1 2.6
20/07:00am 11.3 9.8 8.5 83 1.4 W 6 11 3 6 1025.8 1025.8 2.6
20/06:30am 11.5 10.1 8.7 83 1.4 W 6 11 3 6 1025.4 1025.4 2.6
20/06:00am 11.4 9.9 8.3 81 1.5 W 6 13 3 7 1024.9 1024.9 2.6
20/05:30am 11.8 10.2 8.1 78 1.8 W 6 15 3 8 1024.5 1024.5 2.6
20/05:00am 12.3 10.1 8.0 75 2.1 W 9 28 5 15 1024.2 1024.2 2.6
20/04:30am 12.1 10.4 7.4 73 2.3 W 6 11 3 6 1023.9 1023.9 2.6
20/04:00am 11.8 9.8 7.1 73 2.2 W 7 15 4 8 1023.9 1023.9 2.6
20/03:30am 12.2 9.8 7.1 71 2.5 WSW 9 13 5 7 1023.8 1023.8 2.6
20/03:00am 12.4 10.6 7.1 70 2.5 W 6 11 3 6 1023.5 1023.5 2.6
20/02:30am 12.9 10.9 7.1 68 2.8 WSW 7 13 4 7 1023.7 1023.7 2.6
20/02:00am 13.2 11.4 7.0 66 3.0 W 6 13 3 7 1023.7 1023.7 2.6
20/01:30am 13.6 12.1 6.9 64 3.2 WSW 4 9 2 5 1023.9 1023.9 2.6
20/01:00am 13.5 11.6 6.8 64 3.2 W 6 9 3 5 1024.0 1024.0 2.6
20/12:30am 13.4 11.5 6.5 63 3.3 W 6 15 3 8 1024.0 1024.0 2.6
20/12:00am 13.7 11.6 6.8 63 3.3 W 7 13 4 7 1024.2 1024.2 2.6
 
Date/Time
EDT
Temp
°C
App
Temp
°C
Dew
Point
°C
Rel
Hum
%
Delta-T
°C
Wind Press
QNH
hPa
Press
MSL
hPa
Rain since
9am
mm
Dir  Spd
km/h
Gust
km/h
Spd
kts
Gust
kts
19/11:30pm 14.0 11.9 6.6 61 3.6 W 7 15 4 8 1023.9 1023.9 2.6
19/11:00pm 14.4 11.5 6.3 58 3.9 WSW 11 22 6 12 1023.9 1023.9 2.6
19/10:30pm 14.7 12.1 6.0 56 4.2 W 9 17 5 9 1023.9 1023.9 2.6
19/10:00pm 15.0 13.1 6.6 57 4.1 W 6 13 3 7 1023.7 1023.7 2.6
19/09:30pm 15.4 13.2 7.7 60 3.8 SW 9 19 5 10 1023.6 1023.6 2.6
19/09:00pm 15.3 14.0 11.1 76 2.2 S 9 15 5 8 1022.9 1022.9 2.6
19/08:30pm 15.2 14.1 10.8 75 2.3 S 7 20 4 11 1022.4 1022.4 2.6
19/08:00pm 15.3 13.1 10.7 74 2.4 S 13 24 7 13 1021.7 1021.7 2.6
19/07:30pm 15.4 13.0 11.4 77 2.1 S 15 35 8 19 1020.9 1020.9 2.6
19/07:00pm 16.0 14.0 12.6 80 1.9 S 15 30 8 16 1020.1 1020.1 2.6
19/06:30pm 16.6 14.9 13.5 82 1.7 S 15 24 8 13 1019.1 1019.1 2.6
19/06:00pm 17.3 16.2 14.4 83 1.7 SSE 13 22 7 12 1018.2 1018.2 2.6
19/05:30pm 17.8 16.9 14.9 83 1.7 S 13 24 7 13 1017.4 1017.4 2.6
19/05:00pm 18.2 17.1 15.3 83 1.7 S 15 32 8 17 1017.0 1017.0 2.6
19/04:30pm 21.0 20.6 16.2 74 2.9 SSW 13 28 7 15 1016.0 1016.0 2.6
19/04:00pm 22.7 23.5 17.2 71 3.4 SSW 9 15 5 8 1015.6 1015.6 2.6
19/03:30pm 23.1 24.3 17.3 70 3.6 S 7 13 4 7 1015.6 1015.6 2.6
19/03:00pm 23.5 24.9 17.9 71 3.5 S 7 13 4 7 1015.3 1015.3 2.6
19/02:30pm 24.9 25.6 17.9 65 4.4 N 11 19 6 10 1015.1 1015.1 2.6
19/02:00pm 25.3 24.9 18.0 64 4.6 NNW 17 26 9 14 1015.2 1015.2 2.6
19/01:30pm 24.8 24.0 17.0 62 4.8 N 17 26 9 14 1015.4 1015.4 2.6
19/01:00pm 23.0 24.9 19.0 78 2.5 N 7 11 4 6 1015.7 1015.7 2.6
19/12:30pm 20.6 23.6 18.5 88 1.3 CALM 0 0 0 0 1015.9 1015.9 2.6
19/12:00pm 19.7 21.8 18.9 95 0.5 ENE 6 11 3 6 1015.9 1015.9 2.6
19/11:30am 18.6 21.5 18.1 97 0.3 CALM 0 0 0 0 1016.5 1016.5 2.4
19/11:23am 18.6 21.5 18.3 98 0.2 CALM 0 0 0 0 1016.4 1016.4 2.2
19/11:00am 18.4 19.6 17.4 94 0.6 SSW 7 13 4 7 1016.6 1016.6 1.4
19/10:38am 19.3 20.3 16.9 86 1.5 SW 7 15 4 8 1016.7 1016.7 0.8
19/10:30am 19.5 19.9 16.3 82 1.9 SSW 9 20 5 11 1016.6 1016.6 0.0
19/10:00am 18.8 18.2 15.7 82 1.8 S 13 20 7 11 1016.7 1016.7 0.0
19/09:57am 18.6 17.5 15.3 81 1.9 SSW 15 28 8 15 1016.7 1016.7 0.0
19/09:30am 23.6 21.1 12.3 49 6.4 N 17 26 9 14 1015.6 1015.6 0.0
19/09:00am 23.8 21.0 11.2 45 7.0 N 17 26 9 14 1015.5 1015.5 0.0
19/08:30am 23.9 21.1 11.3 45 7.1 N 17 28 9 15 1015.6 1015.6 0.0
19/08:00am 23.9 21.0 10.9 44 7.2 N 17 28 9 15 1015.2 1015.2 0.0
19/07:30am 24.2 20.5 10.1 41 7.8 N 20 33 11 18 1015.0 1015.0 0.0
19/07:00am 24.1 21.1 10.7 43 7.4 N 17 28 9 15 1014.4 1014.4 0.0
19/06:30am 24.9 21.3 10.4 40 8.0 N 20 39 11 21 1013.6 1013.6 0.0
19/06:00am 26.0 22.1 8.5 33 9.4 N 19 28 10 15 1013.3 1013.3 0.0
19/05:30am 25.7 22.9 8.7 34 9.2 N 13 22 7 12 1012.9 1012.9 0.0
19/05:00am 25.4 22.7 8.8 35 9.0 N 13 22 7 12 1013.2 1013.2 0.0
19/04:30am 24.8 22.1 9.1 37 8.5 N 13 20 7 11 1013.5 1013.5 0.0
19/04:00am 24.3 21.8 9.8 40 7.9 N 13 19 7 10 1013.7 1013.7 0.0
19/03:30am 24.3 22.2 9.8 40 7.9 N 11 17 6 9 1013.9 1013.9 0.0
19/03:00am 23.7 21.8 10.4 43 7.3 NNE 11 17 6 9 1014.1 1014.1 0.0
19/02:30am 23.7 21.4 10.4 43 7.3 NNE 13 17 7 9 1014.5 1014.5 0.0
19/02:00am 22.7 21.3 10.8 47 6.6 N 9 15 5 8 1015.1 1015.1 0.0
19/01:30am 22.9 21.9 11.0 47 6.6 NNE 7 11 4 6 1015.5 1015.5 0.0
19/01:00am 23.3 21.5 11.0 46 6.8 N 11 20 6 11 1016.0 1016.0 0.0
19/12:30am 23.8 22.2 11.5 46 6.9 NE 11 24 6 13 1016.0 1016.0 0.0
19/12:00am 23.6 21.8 12.0 48 6.6 NNE 13 20 7 11 1016.7 1016.7 0.0
 
Date/Time
EDT
Temp
°C
App
Temp
°C
Dew
Point
°C
Rel
Hum
%
Delta-T
°C
Wind Press
QNH
hPa
Press
MSL
hPa
Rain since
9am
mm
Dir  Spd
km/h
Gust
km/h
Spd
kts
Gust
kts
18/11:30pm 23.7 22.2 12.0 48 6.6 NNE 11 19 6 10 1017.0 1017.0 0.0
18/11:00pm 24.2 23.1 11.9 46 7.0 NNE 9 15 5 8 1017.4 1017.4 0.0
18/10:30pm 24.1 23.6 12.1 47 6.8 N 6 9 3 5 1017.8 1017.8 0.0
18/10:00pm 24.7 23.5 11.6 44 7.4 NNE 9 15 5 8 1017.9 1017.9 0.0
18/09:30pm 25.6 24.4 11.7 42 7.9 NNE 9 15 5 8 1018.0 1018.0 0.0
18/09:00pm 26.3 25.3 10.9 38 8.7 NNE 7 11 4 6 1017.8 1017.8 0.0
18/08:30pm 27.1 25.3 10.8 36 9.2 NNE 11 15 6 8 1017.5 1017.5 0.0
18/08:00pm 27.6 25.4 10.8 35 9.5 NNE 13 20 7 11 1017.3 1017.3 0.0
18/07:30pm 28.1 25.6 11.2 35 9.7 N 15 30 8 16 1017.0 1017.0 0.0
18/07:00pm 28.8 25.5 10.9 33 10.2 N 19 28 10 15 1016.8 1016.8 0.0
18/06:30pm 29.6 26.6 10.7 31 10.8 N 17 24 9 13 1016.6 1016.6 0.0
18/06:00pm 30.0 27.0 10.5 30 11.1 N 17 28 9 15 1016.6 1016.6 0.0
18/05:30pm 30.1 26.7 11.1 31 10.9 NNW 20 33 11 18 1016.6 1016.6 0.0
18/05:00pm 30.3 27.0 10.8 30 11.2 N 19 30 10 16 1016.5 1016.5 0.0
18/04:30pm 30.4 26.1 10.9 30 11.2 NNW 24 41 13 22 1016.9 1016.9 0.0
18/04:00pm 30.4 26.5 10.9 30 11.2 NNW 22 33 12 18 1017.2 1017.2 0.0

Latest Capital City Observations: Canberra | Sydney | Melbourne | Brisbane | Adelaide | Perth | Hobart | Darwin

Other Formats:

Comma delimited format used in spreadsheet applications
http://www.bom.gov.au/fwo/IDV60901/IDV60901.95936.axf

JavaScript Object Notation format (JSON) in row-major order
http://www.bom.gov.au/fwo/IDV60901/IDV60901.95936.json